Cookstown, New Jersey
Current Conditions -  °F | °C
As of 5:08 PM on Saturday 25 Oct 2014 (Local Time) from KWRI Reporting Station
Haze Haze  
Wind Chill: 66°   Ceiling: Unl
Heat Index: 66°   Visibility: 2.5mi
Dew Point: 45°   Wind: 10mph
Humidity: 46%   Direction: 270°W
Pressure: 29.68"   Gusts: NA
Location:  40.05°N, 74.56°W
Report Text: KWRI 252108Z AUTO 27009KT 2 1/2SM HZ CLR 19/07 A2968 RMK AO2 VIS 2 1/2V3 $
Loading
Personal Weather Stations






























Interactive Weather Map
Tropical Storm Tracking
New forecast layout! Learn more

10-Day Weather Forecast

Advertisements
Track Severe Weather on mobile